• Join FlightAware (Why Join?)
  • Login
  • US Flag 
06:13AM EST


 

Airport Tracker/Info


-or-


 

Live Flight TrackerFlight Track Log ✈ UAL326 ✈ 13-May-2013 ✈ KMCO - KIAD

Flight Track Log - Related Links

Times and Time Zones

All times are in EDT time to prevent confusion due to time zone crossing. See the UAL326 flight status page for this flight to view local times or setup timezone preferences in your user account.

Time Position Orientation Groundspeed Altitude Reporting Facility
EDT Latitude Longitude Course Direction KTS MPH feet Rate Location/Type
02:08PM 28.4500 -81.3167 360° North 145 167 700  Level Orlando TRACON
02:08PM 28.4667 -81.3167 360° North 151 174 1,700 1,920 Climbing Orlando TRACON
02:09PM 28.5000 -81.3167 360° North 155 178 3,500 1,500 Climbing Orlando TRACON
02:10PM 28.5667 -81.3000 12° North 249 287 4,800 2,100 Climbing Orlando TRACON
02:12PM 28.6703 -81.3192 351° North 280 322 9,000 2,400 Climbing Jacksonville Center
02:13PM 28.7519 -81.3319 352° North 287 330 11,000 1,500 Climbing Jacksonville Center
02:14PM 28.8522 -81.3494 351° North 321 369 12,000 1,680 Climbing Jacksonville Center
02:15PM 28.9611 -81.3667 352° North 365 420 14,500 2,040 Climbing Jacksonville Center
02:16PM 29.0697 -81.3864 351° North 390 449 16,200 1,680 Climbing Jacksonville Center
02:17PM 29.1847 -81.3964 356° North 403 464 17,900 1,560 Climbing Jacksonville Center
02:18PM 29.3039 -81.4089 355° North 420 483 19,400 1,560 Climbing Jacksonville Center
02:19PM 29.4272 -81.4189 356° North 431 496 21,100 1,560 Climbing Jacksonville Center
02:20PM 29.5525 -81.4361 353° North 441 507 22,600 1,260 Climbing Jacksonville Center
02:21PM 29.6906 -81.4486 356° North 447 514 23,700 1,740 Climbing Jacksonville Center
02:22PM 29.8056 -81.4589 356° North 447 514 26,100 5,640 Climbing Jacksonville Center
02:23PM 29.9308 -81.4714 355° North 447 514 35,000 1,620 Climbing Jacksonville Center
02:24PM 30.0542 -81.4817 356° North 442 509 29,400 -2,280 Descending Jacksonville Center
02:25PM 30.1753 -81.4942 355° North 442 509 30,500 1,260 Climbing Jacksonville Center
02:26PM 30.2986 -81.5067 355° North 442 509 32,000 1,800 Climbing Jacksonville Center
02:27PM 30.4197 -81.5025 North 442 509 34,100 1,500 Climbing Jacksonville Center
02:28PM 30.5533 -81.4933 North 442 509 35,000 420 Climbing Jacksonville Center
02:29PM 30.6783 -81.4819 North 442 509 35,000  Level Jacksonville Center
02:30PM 30.8056 -81.4728 North 442 509 35,000  Level Jacksonville Center
02:31PM 30.9328 -81.4636 North 447 514 35,000  Level Jacksonville Center
02:32PM 31.0603 -81.4544 North 452 520 35,000  Level Jacksonville Center
02:33PM 31.1875 -81.4428 North 445 512 35,000  Level Jacksonville Center
02:34PM 31.3167 -81.4239 North 460 529 35,000  Level Jacksonville Center
02:35PM 31.4289 -81.3903 14° North 467 537 35,000  Level Jacksonville Center
02:36PM 31.5683 -81.3539 13° North 467 537 35,000  Level Jacksonville Center
02:37PM 31.6975 -81.3200 13° North 466 536 35,000  Level Jacksonville Center
02:38PM 31.8097 -81.2889 13° North 466 536 35,000 -60 Level Jacksonville Center
02:39PM 31.9431 -81.2522 13° North 473 544 34,900 -60 Descending Jacksonville Center
02:40PM 32.0522 -81.1497 39° Northeast 473 544 34,900  Level Jacksonville Center
02:41PM 32.1628 -81.0006 49° Northeast 513 590 35,000  Climbing Jacksonville Center
02:42PM 32.2592 -80.8781 47° Northeast 508 585 35,000  Level Jacksonville Center
02:43PM 32.3469 -80.7656 47° Northeast 514 592 35,000 -60 Level Jacksonville Center
02:44PM 32.4428 -80.6378 48° Northeast 514 592 34,900 -60 Descending Jacksonville Center
02:45PM 32.5408 -80.5097 48° Northeast 514 592 34,900  Level Jacksonville Center
02:46PM 32.6344 -80.3839 49° Northeast 514 592 34,900  Level Jacksonville Center
02:47PM 32.7339 -80.2528 48° Northeast 514 592 34,900  Level Jacksonville Center
02:48PM 32.8417 -80.1136 47° Northeast 514 592 35,000  Climbing Jacksonville Center
02:49PM 32.9561 -80.0083 38° Northeast 514 592 35,000  Level Jacksonville Center
02:50PM 33.0817 -79.9325 27° Northeast 506 582 35,000  Level Jacksonville Center
02:51PM 33.2094 -79.8614 25° Northeast 494 568 35,000  Level Jacksonville Center
02:52PM 33.3331 -79.7950 24° Northeast 494 568 35,000 -60 Level Jacksonville Center
02:53PM 33.4586 -79.7258 25° Northeast 494 568 34,900 -60 Descending Jacksonville Center
02:54PM 33.5842 -79.6517 26° Northeast 494 568 34,900  Level Jacksonville Center
02:55PM 33.7117 -79.5844 24° Northeast 494 568 35,000  Climbing Jacksonville Center
02:56PM 33.8350 -79.5122 26° Northeast 499 574 35,000 -60 Level Jacksonville Center
02:57PM 34.0297 -79.4056 24° Northeast 481 554 34,900 -60 Descending Washington Center
02:58PM 34.1572 -79.3311 26° Northeast 481 554 34,900  Level Washington Center
02:59PM 34.2931 -79.2544 25° Northeast 486 559 35,000  Climbing Washington Center
03:00PM 34.4183 -79.1819 26° Northeast 486 559 35,000  Level Washington Center
03:01PM 34.5417 -79.1092 26° Northeast 491 565 35,000  Level Washington Center
03:02PM 34.6667 -79.0389 25° Northeast 491 565 35,000  Level Washington Center
03:03PM 34.7897 -78.9681 25° Northeast 491 565 35,000  Level Washington Center
03:04PM 34.9150 -78.8950 26° Northeast 491 565 35,000  Level Washington Center
03:05PM 35.0400 -78.8214 26° Northeast 491 565 35,000  Level Washington Center
03:06PM 35.1650 -78.7475 26° Northeast 491 565 35,000  Level Washington Center
03:07PM 35.2939 -78.6917 19° North 491 565 35,000  Level Washington Center
03:08PM 35.4264 -78.6483 15° North 483 556 35,000 -420 Level Washington Center
03:09PM 35.5444 -78.6042 17° North 483 556 34,200 -1,080 Descending Washington Center
03:10PM 35.6769 -78.5556 17° North 483 556 32,900 -1,440 Descending Washington Center
03:11PM 35.7992 -78.5064 18° North 477 549 31,400 -1,500 Descending Washington Center
03:12PM 35.9256 -78.4572 17° North 477 549 29,900 -1,500 Descending Washington Center
03:13PM 36.0583 -78.4081 17° North 477 549 28,400 -1,440 Descending Washington Center
03:14PM 36.1825 -78.3608 17° North 477 549 27,100 -720 Descending Washington Center
03:15PM 36.3067 -78.3111 18° North 477 549 27,000 -60 Descending Washington Center
03:16PM 36.4331 -78.2614 18° North 472 543 27,000  Level Washington Center
03:17PM 36.5572 -78.2139 17° North 467 537 27,000  Level Washington Center
03:18PM 36.6919 -78.1536 20° North 475 547 27,000  Level Washington Center
03:19PM 36.8228 -78.0906 21° North 494 568 27,000 -300 Level Washington Center
03:20PM 36.9575 -78.0275 21° North 499 574 26,400 -960 Descending Washington Center
03:21PM 37.0858 -77.9689 20° North 499 574 25,100 -1,920 Descending Washington Center
03:22PM 37.2081 -77.9100 21° North 482 555 22,600 -1,620 Descending Washington Center
03:23PM 37.3281 -77.8536 20° North 468 539 22,000 -360 Descending Washington Center
03:24PM 37.4481 -77.7969 21° North 458 527 22,000 -420 Level Washington Center
03:25PM 37.5681 -77.7378 21° North 458 527 21,200 -2,160 Descending Washington Center
03:26PM 37.6817 -77.6831 21° North 452 520 17,700 -3,240 Descending Washington Center
03:27PM 37.7889 -77.6336 20° North 433 498 14,800 -2,700 Descending Washington Center
03:28PM 37.8875 -77.5889 20° North 400 460 12,400 -2,220 Descending Washington Center
03:29PM 37.9739 -77.5436 22° Northeast 359 413 10,400 -1,200 Descending Washington Center
03:30PM 38.0683 -77.5039 18° North 327 376 10,000 -240 Descending Washington Center
03:31PM 38.1461 -77.4664 21° North 310 357 10,000  Level Washington Center
03:32PM 38.2175 -77.4311 21° North 286 329 10,000 -600 Level Washington Center
03:33PM 38.2925 -77.4331 359° North 266 306 8,900 -1,260 Descending Washington Center
03:34PM 38.3656 -77.4400 356° North 260 299 7,500 -960 Descending Washington Center
03:35PM 38.4383 -77.4444 357° North 260 299 7,000 -540 Descending Washington Center
03:36PM 38.5028 -77.4514 355° North 247 284 6,500 -480 Descending Washington Center
03:37PM 38.5569 -77.4556 357° North 217 250 6,100 -420 Descending Washington Center
03:38PM 38.6069 -77.4594 357° North 195 224 5,700 -780 Descending Washington Center
03:39PM 38.6569 -77.4633 357° North 181 208 4,600 -840 Descending Washington Center
03:40PM 38.7000 -77.4667 357° North 183 211 4,200 -420 Descending Potomac TRACON
03:41PM 38.7500 -77.4667 360° North 182 209 3,900 -600 Descending Potomac TRACON
03:42PM 38.8000 -77.4667 360° North 171 197 3,000 -900 Descending Potomac TRACON
03:43PM 38.8500 -77.4667 360° North 167 192 2,200 -900 Descending Potomac TRACON